Time;durP1;ratioP1;P1;durP2;ratioP2;P2;SDS_P1;SDS_P2;PMS_P1;PMS_P2;Temp;Humidity;BMP_temperature;BMP_pressure;BME280_temperature;BME280_humidity;BME280_pressure;Samples;Min_cycle;Max_cycle;Signal;HPM_P1;HPM_P2
2023/03/30 00:01:54;;;;;;;5.68;3.20;;;;;;;-5.19;100.00;98972.38;5138521;28;20051;-62
2023/03/30 00:04:21;;;;;;;2.85;2.40;;;;;;;-5.32;100.00;98979.03;5138639;27;20066;-64
2023/03/30 00:06:48;;;;;;;4.07;3.10;;;;;;;-5.13;100.00;98998.84;5138738;28;20142;-63
2023/03/30 00:09:14;;;;;;;4.55;2.83;;;;;;;-5.11;100.00;98982.53;5138625;28;20075;-64
2023/03/30 00:11:42;;;;;;;7.13;3.20;;;;;;;-5.18;100.00;98960.59;5138614;28;20349;-62
2023/03/30 00:14:08;;;;;;;3.42;2.42;;;;;;;-5.22;100.00;98947.78;5138467;28;20423;-65
2023/03/30 00:16:34;;;;;;;5.15;2.65;;;;;;;-5.21;100.00;98948.56;5138704;28;20119;-65
2023/03/30 00:19:00;;;;;;;4.40;2.78;;;;;;;-5.20;100.00;98966.19;5138339;28;20057;-62
2023/03/30 00:21:28;;;;;;;7.07;2.75;;;;;;;-5.27;100.00;98968.34;5138687;28;20078;-62
2023/03/30 00:23:53;;;;;;;3.88;2.40;;;;;;;-5.27;100.00;98981.69;5138184;28;20055;-63
2023/03/30 00:26:20;;;;;;;4.72;2.83;;;;;;;-5.28;100.00;98988.91;5138576;28;20083;-62
2023/03/30 00:28:46;;;;;;;3.58;2.63;;;;;;;-5.32;100.00;98985.16;5138098;28;20099;-64
2023/03/30 00:31:12;;;;;;;5.07;2.45;;;;;;;-5.31;100.00;98996.66;5138616;28;20046;-64
2023/03/30 00:33:38;;;;;;;4.15;2.72;;;;;;;-5.34;100.00;98991.84;5138615;28;20108;-65
2023/03/30 00:36:05;;;;;;;2.50;2.30;;;;;;;-5.38;100.00;99004.13;5140629;27;20047;-64
2023/03/30 00:38:31;;;;;;;4.07;2.80;;;;;;;-5.40;100.00;99008.91;5140018;28;20047;-65
2023/03/30 00:40:59;;;;;;;3.50;2.60;;;;;;;-5.52;100.00;99009.97;5137645;27;20154;-63
2023/03/30 00:43:26;;;;;;;4.13;2.55;;;;;;;-5.49;100.00;99035.38;5137407;28;20043;-64
2023/03/30 00:45:54;;;;;;;7.25;3.00;;;;;;;-5.51;100.00;99032.94;5137905;28;20134;-64
2023/03/30 00:48:26;;;;;;;6.72;2.80;;;;;;;-5.52;100.00;99036.69;5138183;28;20054;-64
2023/03/30 00:50:55;;;;;;;3.92;3.00;;;;;;;-5.54;100.00;99046.03;5137823;28;20074;-62
2023/03/30 00:53:26;;;;;;;8.85;3.00;;;;;;;-5.60;100.00;99049.72;5138175;28;20057;-65
2023/03/30 00:55:53;;;;;;;3.40;2.60;;;;;;;-5.61;100.00;99048.13;5137683;28;20082;-62
2023/03/30 00:58:21;;;;;;;4.20;2.88;;;;;;;-5.59;100.00;99064.72;5137857;28;20100;-65
2023/03/30 01:00:47;;;;;;;4.25;2.53;;;;;;;-5.65;100.00;99074.56;5137922;28;20134;-61
2023/03/30 01:03:18;;;;;;;5.90;3.25;;;;;;;-5.63;100.00;99076.97;5137788;28;20306;-65
2023/03/30 01:05:45;;;;;;;8.05;3.25;;;;;;;-5.65;100.00;99082.56;5137819;27;20069;-63
2023/03/30 01:08:12;;;;;;;5.55;3.08;;;;;;;-5.69;100.00;99098.31;5137466;28;20051;-62
2023/03/30 01:10:39;;;;;;;5.55;3.20;;;;;;;-5.69;100.00;99089.50;5137927;28;20054;-64
2023/03/30 01:13:05;;;;;;;7.00;3.20;;;;;;;-5.81;100.00;99107.59;5137579;28;20078;-62
2023/03/30 01:15:36;;;;;;;5.97;2.92;;;;;;;-5.81;100.00;99111.06;5137402;28;20099;-62
2023/03/30 01:18:13;;;;;;;4.50;3.15;;;;;;;-5.77;100.00;99125.50;5137404;28;20055;-62
2023/03/30 01:21:22;;;;;;;6.07;3.28;;;;;;;-5.78;100.00;99134.59;5137850;28;20055;-63
2023/03/30 01:24:34;;;;;;;6.65;3.47;;;;;;;-5.78;100.00;99153.28;5137647;28;20055;-62
2023/03/30 01:27:09;;;;;;;4.22;3.17;;;;;;;-5.80;100.00;99167.94;5137200;28;20051;-64
2023/03/30 01:29:47;;;;;;;9.48;4.10;;;;;;;-5.84;100.00;99172.19;5137487;28;20051;-64
2023/03/30 01:32:47;;;;;;;5.85;4.15;;;;;;;-5.80;100.00;99179.41;5137393;28;20047;-61
2023/03/30 01:35:56;;;;;;;10.10;4.75;;;;;;;-5.89;100.00;99172.16;5137118;27;20138;-62
2023/03/30 01:39:10;;;;;;;11.00;5.32;;;;;;;-5.95;100.00;99171.34;5137636;28;20058;-61
2023/03/30 01:41:46;;;;;;;9.98;4.65;;;;;;;-5.96;100.00;99169.75;5034691;28;20511;-61
2023/03/30 01:44:22;;;;;;;16.02;5.13;;;;;;;-5.98;100.00;99183.34;5119090;28;20047;-62
2023/03/30 01:46:54;;;;;;;14.50;5.70;;;;;;;-6.01;100.00;99199.06;5137424;28;20403;-64
2023/03/30 01:49:27;;;;;;;14.90;7.78;;;;;;;-6.04;100.00;99195.03;5137173;28;20146;-61
2023/03/30 01:52:00;;;;;;;12.43;5.40;;;;;;;-6.04;100.00;99204.91;5137464;28;20078;-62
2023/03/30 01:54:32;;;;;;;12.75;5.22;;;;;;;-6.05;100.00;99213.97;5140054;27;20068;-63
2023/03/30 01:57:04;;;;;;;14.50;5.68;;;;;;;-6.10;100.00;99206.72;5140583;28;20476;-64
2023/03/30 01:59:36;;;;;;;8.48;4.60;;;;;;;-6.10;100.00;99206.72;5140883;28;20133;-62
2023/03/30 02:02:06;;;;;;;15.57;6.07;;;;;;;-6.10;100.00;99213.94;5140612;28;20487;-64
2023/03/30 02:04:37;;;;;;;10.90;4.88;;;;;;;-6.15;100.00;99214.69;5140660;27;20320;-64
2023/03/30 02:07:07;;;;;;;10.02;5.30;;;;;;;-6.16;100.00;99211.22;5140459;28;20047;-63
2023/03/30 02:09:38;;;;;;;10.63;4.75;;;;;;;-6.22;100.00;99219.44;5140819;28;20047;-62
2023/03/30 02:12:06;;;;;;;14.05;5.97;;;;;;;-6.22;100.00;99235.47;5140367;28;20059;-62
2023/03/30 02:14:34;;;;;;;13.75;6.50;;;;;;;-6.19;100.00;99241.09;5140117;28;20051;-63
2023/03/30 02:17:05;;;;;;;15.05;5.63;;;;;;;-6.20;100.00;99247.50;5140533;28;20376;-64
2023/03/30 02:19:32;;;;;;;19.55;6.95;;;;;;;-6.28;100.00;99244.47;5140390;28;20141;-65
2023/03/30 02:22:00;;;;;;;12.05;6.15;;;;;;;-6.24;100.00;99242.91;5140515;28;20082;-61
2023/03/30 02:24:30;;;;;;;12.95;6.75;;;;;;;-6.27;100.00;99236.19;5140303;28;20111;-62
2023/03/30 02:26:59;;;;;;;14.07;6.10;;;;;;;-6.20;100.00;99249.34;5140446;28;20055;-65
2023/03/30 02:29:26;;;;;;;15.10;7.22;;;;;;;-6.19;100.00;99257.09;5140189;28;20051;-62
2023/03/30 02:31:55;;;;;;;15.20;6.95;;;;;;;-6.16;100.00;99250.47;5140348;28;20054;-64
2023/03/30 02:34:36;;;;;;;21.98;8.55;;;;;;;-6.17;100.00;99235.47;5140004;27;20142;-63
2023/03/30 02:37:18;;;;;;;23.17;9.00;;;;;;;-6.17;100.00;99230.94;5140415;28;20077;-62
2023/03/30 02:39:57;;;;;;;20.73;9.75;;;;;;;-6.21;100.00;99213.03;5140138;28;20062;-65
2023/03/30 02:42:45;;;;;;;22.52;9.18;;;;;;;-6.17;100.00;99201.59;5140021;28;20412;-62
2023/03/30 02:45:25;;;;;;;20.85;9.05;;;;;;;-6.19;100.00;99187.72;5140250;28;20075;-65
2023/03/30 02:48:08;;;;;;;18.65;8.65;;;;;;;-6.20;100.00;99162.09;5139722;28;20389;-62
2023/03/30 02:50:43;;;;;;;17.50;8.30;;;;;;;-6.19;100.00;99157.56;5140188;28;20143;-61
2023/03/30 02:53:16;;;;;;;19.23;7.95;;;;;;;-6.14;100.00;99162.94;5140019;28;20476;-62
2023/03/30 02:55:49;;;;;;;15.40;7.23;;;;;;;-6.24;100.00;99152.19;5139657;28;20051;-61
2023/03/30 02:58:20;;;;;;;17.27;8.38;;;;;;;-6.09;100.00;99156.84;5140013;28;20146;-62
2023/03/30 03:00:51;;;;;;;17.25;7.80;;;;;;;-6.06;100.00;99146.47;5139517;28;20440;-62
2023/03/30 03:03:22;;;;;;;23.42;7.97;;;;;;;-6.13;100.00;99121.03;5139998;28;20082;-62
2023/03/30 03:05:52;;;;;;;20.92;8.38;;;;;;;-6.12;100.00;99112.00;5138515;27;20051;-64
2023/03/30 03:08:22;;;;;;;23.98;9.45;;;;;;;-6.16;100.00;99088.47;5139913;28;20046;-64
2023/03/30 03:10:48;;;;;;;22.58;10.23;;;;;;;-6.19;100.00;99074.84;5139397;28;20051;-62
2023/03/30 03:13:15;;;;;;;24.80;8.75;;;;;;;-6.29;100.00;99067.59;5139705;28;20043;-64
2023/03/30 03:15:44;;;;;;;40.10;10.93;;;;;;;-6.29;100.00;99075.59;5139608;28;20086;-64
2023/03/30 03:18:11;;;;;;;33.38;11.20;;;;;;;-6.47;100.00;99055.44;5139342;28;20146;-64
2023/03/30 03:20:37;;;;;;;26.27;10.35;;;;;;;-6.39;100.00;99067.50;5139355;28;20476;-63
2023/03/30 03:23:03;;;;;;;35.50;11.60;;;;;;;-6.35;100.00;99071.28;5139228;28;20138;-61
2023/03/30 03:25:30;;;;;;;34.58;11.90;;;;;;;-6.50;100.00;99057.81;5139743;28;20388;-63
2023/03/30 03:27:56;;;;;;;26.17;10.52;;;;;;;-6.43;100.00;99074.41;5139092;28;20408;-63
2023/03/30 03:30:22;;;;;;;28.77;10.27;;;;;;;-6.38;100.00;99086.97;5139602;28;20144;-62
2023/03/30 03:32:48;;;;;;;26.27;8.85;;;;;;;-6.54;100.00;99091.38;5139159;28;20129;-64
2023/03/30 03:35:15;;;;;;;25.02;9.32;;;;;;;-6.39;100.00;99134.19;5138897;27;20427;-63
2023/03/30 03:37:41;;;;;;;19.77;9.25;;;;;;;-6.47;100.00;99175.47;5138978;28;20107;-62
2023/03/30 03:40:10;;;;;;;34.67;11.88;;;;;;;-6.38;100.00;99237.16;5138887;28;20047;-62
2023/03/30 03:42:36;;;;;;;22.63;10.43;;;;;;;-6.33;100.00;99282.59;5139195;28;20058;-62
2023/03/30 03:45:02;;;;;;;23.45;8.82;;;;;;;-6.20;100.00;99303.53;5139065;28;20465;-63
2023/03/30 03:47:28;;;;;;;29.38;10.80;;;;;;;-6.21;100.00;99290.44;5138917;28;20188;-64
2023/03/30 03:49:54;;;;;;;28.27;9.68;;;;;;;-6.41;100.00;99269.69;5138947;28;20092;-61
2023/03/30 03:52:20;;;;;;;35.22;11.05;;;;;;;-6.33;100.00;99279.09;5138995;28;20051;-61
2023/03/30 03:54:46;;;;;;;38.28;11.80;;;;;;;-6.27;100.00;99275.41;5138868;28;20104;-61
2023/03/30 03:57:12;;;;;;;29.23;11.60;;;;;;;-6.43;100.00;99243.28;5139243;28;20439;-63
2023/03/30 03:59:38;;;;;;;31.67;11.70;;;;;;;-6.29;100.00;99253.53;5139151;28;20135;-62
2023/03/30 04:02:04;;;;;;;37.90;12.45;;;;;;;-6.26;100.00;99243.16;5139615;28;20074;-64
2023/03/30 04:04:30;;;;;;;41.00;14.98;;;;;;;-6.23;100.00;99233.81;5139534;27;20058;-62
2023/03/30 04:06:56;;;;;;;40.47;14.57;;;;;;;-6.16;100.00;99223.78;5144107;28;20043;-60
2023/03/30 04:09:23;;;;;;;26.42;12.27;;;;;;;-6.10;100.00;99222.72;5141763;28;20050;-62
2023/03/30 04:11:49;;;;;;;32.60;14.05;;;;;;;-6.04;100.00;99215.59;5138743;28;20111;-65
2023/03/30 04:14:15;;;;;;;36.75;13.48;;;;;;;-6.04;100.00;99195.03;5138378;28;20062;-62
2023/03/30 04:16:42;;;;;;;45.63;14.60;;;;;;;-5.96;100.00;99188.44;5138188;27;20047;-63
2023/03/30 04:19:11;;;;;;;33.20;13.35;;;;;;;-5.94;100.00;99164.94;5138636;28;20047;-63
2023/03/30 04:21:40;;;;;;;37.53;13.30;;;;;;;-5.79;100.00;99153.53;5138328;28;20065;-64
2023/03/30 04:24:06;;;;;;;40.83;13.80;;;;;;;-5.58;100.00;99139.22;5138586;28;20156;-64
2023/03/30 04:26:33;;;;;;;38.38;15.25;;;;;;;-5.11;100.00;99132.19;5138087;28;20049;-63
2023/03/30 04:28:59;;;;;;;47.42;16.35;;;;;;;-4.29;100.00;99091.13;5138436;28;20051;-64
2023/03/30 04:31:25;;;;;;;56.00;16.15;;;;;;;-3.62;100.00;98939.06;5138025;28;20051;-65
2023/03/30 04:33:52;;;;;;;48.47;17.98;;;;;;;-2.93;100.00;98705.72;5137923;28;20142;-64
2023/03/30 04:36:18;;;;;;;52.30;19.15;;;;;;;-2.25;100.00;98460.19;5137776;27;20043;-62
2023/03/30 04:38:44;;;;;;;59.53;22.40;;;;;;;-1.68;100.00;98307.47;5138217;28;20123;-64
2023/03/30 04:41:13;;;;;;;63.65;22.40;;;;;;;-1.22;100.00;98261.44;5138215;28;20146;-62
2023/03/30 04:43:40;;;;;;;52.20;20.17;;;;;;;-0.61;100.00;98328.94;5138121;28;20104;-64
2023/03/30 04:46:06;;;;;;;57.17;19.73;;;;;;;0.06;100.00;98443.69;5137706;28;20053;-64
2023/03/30 04:48:32;;;;;;;51.20;18.95;;;;;;;0.08;100.00;98529.66;5137600;28;20054;-64
2023/03/30 04:50:58;;;;;;;45.15;19.75;;;;;;;0.42;100.00;98585.59;5137977;28;20111;-64
2023/03/30 04:53:24;;;;;;;50.33;19.90;;;;;;;0.65;100.00;98615.97;5137362;28;20408;-62
2023/03/30 04:55:50;;;;;;;44.33;20.30;;;;;;;0.54;100.00;98661.31;5137833;28;20138;-63
2023/03/30 04:58:17;;;;;;;37.53;18.98;;;;;;;-0.30;100.00;98676.34;5137672;28;20055;-63
2023/03/30 05:00:43;;;;;;;44.97;17.42;;;;;;;0.40;100.00;98647.94;5138004;28;20484;-63
2023/03/30 05:03:09;;;;;;;28.83;13.90;;;;;;;1.17;100.00;98665.50;5137483;28;20061;-65
2023/03/30 05:05:35;;;;;;;40.25;17.35;;;;;;;1.37;100.00;98706.50;5137601;27;20138;-66
2023/03/30 05:08:01;;;;;;;33.53;13.93;;;;;;;1.81;100.00;98720.88;5137028;28;20050;-63
2023/03/30 05:10:27;;;;;;;33.05;15.98;;;;;;;2.27;100.00;98735.63;5137309;28;20058;-62
2023/03/30 05:12:53;;;;;;;35.08;14.50;;;;;;;2.46;100.00;98746.09;5137327;28;20061;-64
2023/03/30 05:15:19;;;;;;;29.92;13.30;;;;;;;2.80;100.00;98756.84;5137307;28;20051;-65
2023/03/30 05:17:46;;;;;;;23.88;11.82;;;;;;;3.01;100.00;98770.47;5137490;28;20086;-67
2023/03/30 05:20:13;;;;;;;31.35;13.10;;;;;;;3.19;100.00;98782.03;5137345;28;20157;-67
2023/03/30 05:22:40;;;;;;;25.30;12.85;;;;;;;3.47;100.00;98795.16;5137419;28;20051;-65
2023/03/30 05:25:07;;;;;;;25.98;12.00;;;;;;;3.76;100.00;98792.41;5137044;28;20428;-63
2023/03/30 05:27:33;;;;;;;28.27;12.27;;;;;;;3.88;100.00;98804.47;5136780;27;20100;-64
2023/03/30 05:29:59;;;;;;;30.05;13.07;;;;;;;4.43;100.00;98797.97;5136984;28;20468;-66
2023/03/30 05:32:25;;;;;;;29.20;13.93;;;;;;;4.48;100.00;98809.44;5137621;28;20115;-66
2023/03/30 05:34:52;;;;;;;30.33;14.27;;;;;;;4.85;100.00;98808.78;5136938;27;20097;-64
2023/03/30 05:37:17;;;;;;;31.92;13.77;;;;;;;4.75;100.00;98815.41;5137160;28;20059;-66
2023/03/30 05:39:43;;;;;;;33.13;16.30;;;;;;;5.16;100.00;98819.97;5137171;28;20146;-64
2023/03/30 05:42:10;;;;;;;33.20;17.10;;;;;;;5.18;100.00;98822.31;5136995;28;20314;-65
2023/03/30 05:44:36;;;;;;;32.90;16.10;;;;;;;5.27;100.00;98833.13;5137215;28;20047;-65
2023/03/30 05:47:03;;;;;;;36.80;17.60;;;;;;;5.66;100.00;98816.16;5136923;28;20111;-65
2023/03/30 05:49:30;;;;;;;38.88;20.27;;;;;;;5.85;100.00;98814.75;5137271;28;20043;-67
2023/03/30 05:51:56;;;;;;;93.43;40.88;;;;;;;6.22;100.00;98828.34;5136830;28;20473;-63
2023/03/30 05:54:22;;;;;;;77.25;33.30;;;;;;;6.67;100.00;98819.13;5137099;28;20051;-64
2023/03/30 05:56:48;;;;;;;43.70;20.30;;;;;;;6.56;99.06;98830.50;5136823;28;20443;-64
2023/03/30 05:59:15;;;;;;;61.47;27.70;;;;;;;5.63;100.00;98816.00;5137083;28;20397;-66
2023/03/30 06:01:40;;;;;;;73.00;30.63;;;;;;;4.94;100.00;98812.22;5136463;28;20461;-66
2023/03/30 06:04:07;;;;;;;46.25;22.60;;;;;;;4.11;100.00;98781.34;5136981;28;20138;-65
2023/03/30 06:06:33;;;;;;;35.22;15.48;;;;;;;4.50;100.00;98752.13;5136572;27;20142;-71
2023/03/30 06:08:59;;;;;;;32.33;15.88;;;;;;;4.97;100.00;98757.22;5136561;28;20119;-69
2023/03/30 06:11:27;;;;;;;31.73;17.05;;;;;;;5.24;100.00;98768.56;5136867;28;20090;-68
2023/03/30 06:13:53;;;;;;;34.80;18.25;;;;;;;6.01;100.00;98768.63;5136698;28;20055;-66
2023/03/30 06:16:19;;;;;;;31.75;15.82;;;;;;;7.00;100.00;98780.69;5136730;28;20142;-68
2023/03/30 06:18:45;;;;;;;38.10;16.88;;;;;;;7.42;100.00;98818.34;5136461;28;20070;-69
2023/03/30 06:21:11;;;;;;;32.15;11.38;;;;;;;7.47;91.04;98829.00;5136676;28;20043;-68
2023/03/30 06:23:37;;;;;;;26.60;11.00;;;;;;;8.08;91.80;98830.41;5136398;28;20059;-68
2023/03/30 06:26:04;;;;;;;29.77;12.80;;;;;;;8.08;82.42;98844.06;5136706;28;20070;-66
2023/03/30 06:28:30;;;;;;;32.78;15.38;;;;;;;8.72;82.47;98842.72;5136158;28;20054;-67
2023/03/30 06:30:56;;;;;;;32.20;14.70;;;;;;;9.17;84.27;98844.75;5136618;28;20055;-69
2023/03/30 06:33:24;;;;;;;36.70;14.35;;;;;;;9.65;79.09;98852.59;5136082;28;20417;-66
2023/03/30 06:35:51;;;;;;;16.98;9.05;;;;;;;9.53;77.37;98853.59;5136451;27;20095;-70
2023/03/30 06:38:18;;;;;;;13.88;7.55;;;;;;;9.42;75.65;98858.88;5136419;28;20086;-65
2023/03/30 06:40:44;;;;;;;18.95;6.78;;;;;;;9.69;72.07;98856.19;5137752;27;20080;-65
2023/03/30 06:43:15;;;;;;;13.90;5.47;;;;;;;9.61;73.54;98859.97;5139713;28;20052;-66
2023/03/30 06:45:41;;;;;;;10.45;5.60;;;;;;;8.56;71.39;98864.63;5139824;28;20058;-69
2023/03/30 06:48:07;;;;;;;14.02;5.93;;;;;;;9.15;70.56;98863.47;5139821;28;20054;-71
2023/03/30 06:50:33;;;;;;;17.08;4.68;;;;;;;8.92;69.89;98868.88;5140018;28;20047;-71
2023/03/30 06:52:59;;;;;;;9.35;5.95;;;;;;;9.13;71.67;98867.72;5140490;28;20053;-66
2023/03/30 06:55:25;;;;;;;11.18;5.15;;;;;;;9.74;72.43;98866.06;5139824;28;20141;-68
2023/03/30 06:57:51;;;;;;;13.38;4.65;;;;;;;9.51;69.50;98868.78;5140065;28;20047;-68
2023/03/30 07:00:19;;;;;;;7.68;3.80;;;;;;;8.89;71.19;98871.56;5139244;28;20142;-70
2023/03/30 07:02:45;;;;;;;8.60;4.28;;;;;;;8.47;71.08;98875.78;5139522;28;20047;-66
2023/03/30 07:05:11;;;;;;;9.40;3.50;;;;;;;8.47;69.72;98878.53;5139722;27;20053;-67
2023/03/30 07:07:38;;;;;;;3.92;2.90;;;;;;;8.48;69.93;98869.16;5139550;28;20059;-66
2023/03/30 07:10:08;;;;;;;8.13;3.28;;;;;;;7.89;71.15;98872.88;5139599;28;20160;-62
2023/03/30 07:12:34;;;;;;;8.07;3.40;;;;;;;8.33;71.35;98869.19;5139199;28;20347;-67
2023/03/30 07:15:00;;;;;;;12.30;3.25;;;;;;;9.53;73.75;98859.06;5139427;28;20051;-69
2023/03/30 07:17:27;;;;;;;5.90;3.28;;;;;;;10.36;67.03;98866.59;5139354;28;20337;-63
2023/03/30 07:19:53;;;;;;;7.22;3.75;;;;;;;9.89;68.03;98865.09;5139127;28;20054;-69
2023/03/30 07:22:19;;;;;;;7.68;4.15;;;;;;;9.95;67.37;98863.66;5139347;28;20107;-66
2023/03/30 07:24:45;;;;;;;12.73;3.92;;;;;;;9.84;66.50;98860.75;5138980;28;20043;-69
2023/03/30 07:27:11;;;;;;;13.77;4.28;;;;;;;9.88;69.34;98858.84;5140987;28;20086;-64
2023/03/30 07:29:37;;;;;;;12.63;4.50;;;;;;;10.50;66.22;98855.84;5141042;28;20075;-69
2023/03/30 07:32:03;;;;;;;7.43;3.20;;;;;;;9.72;71.77;98852.72;5141721;28;20403;-70
2023/03/30 07:34:30;;;;;;;8.57;4.10;;;;;;;9.43;67.45;98848.75;5139532;27;20094;-61
2023/03/30 07:36:57;;;;;;;6.00;3.47;;;;;;;10.18;68.09;98852.63;5138793;28;20057;-66
2023/03/30 07:39:23;;;;;;;6.85;3.80;;;;;;;9.24;66.27;98857.78;5139016;28;20043;-60
2023/03/30 07:41:49;;;;;;;8.52;2.83;;;;;;;9.03;68.38;98841.78;5138742;28;20087;-65
2023/03/30 07:44:15;;;;;;;6.50;3.20;;;;;;;9.93;67.26;98846.81;5141095;28;20053;-74
2023/03/30 07:46:41;;;;;;;6.07;2.90;;;;;;;9.28;65.95;98847.69;5139042;28;20047;-66
2023/03/30 07:49:07;;;;;;;9.20;3.53;;;;;;;10.74;69.87;98840.09;5138715;28;20058;-64
2023/03/30 07:51:34;;;;;;;5.95;3.28;;;;;;;9.50;64.13;98845.34;5138168;27;20058;-65
2023/03/30 07:54:00;;;;;;;10.88;3.85;;;;;;;8.81;66.06;98842.50;5139050;28;20110;-66
2023/03/30 07:56:26;;;;;;;13.00;2.85;;;;;;;10.14;67.46;98836.16;5139499;28;20133;-68
2023/03/30 07:58:52;;;;;;;10.05;3.30;;;;;;;11.48;66.37;98837.31;5139031;28;20431;-66
2023/03/30 08:01:19;;;;;;;5.43;3.20;;;;;;;11.13;64.88;98834.22;5138389;28;20333;-64
2023/03/30 08:03:46;;;;;;;6.95;2.80;;;;;;;9.80;63.75;98832.53;5139272;28;20135;-60
2023/03/30 08:06:13;;;;;;;5.20;2.53;;;;;;;10.44;64.36;98840.13;5141832;27;20047;-71
2023/03/30 08:08:40;;;;;;;6.38;2.60;;;;;;;10.97;66.44;98834.47;5139771;28;20055;-63
2023/03/30 08:11:07;;;;;;;5.63;3.13;;;;;;;10.91;63.89;98828.53;5140870;28;20054;-69
2023/03/30 08:13:36;;;;;;;5.20;2.97;;;;;;;11.37;66.19;98828.22;5138965;28;20446;-65
2023/03/30 08:16:02;;;;;;;5.30;2.83;;;;;;;11.17;63.14;98835.88;5140524;28;20104;-67
2023/03/30 08:18:29;;;;;;;5.10;2.28;;;;;;;9.75;62.76;98835.56;5139627;28;20126;-62
2023/03/30 08:20:55;;;;;;;11.30;3.28;;;;;;;8.84;64.48;98826.19;5140294;28;20192;-70
2023/03/30 08:23:21;;;;;;;9.90;2.50;;;;;;;9.27;66.23;98831.66;5138432;28;20051;-70
2023/03/30 08:25:51;;;;;;;6.85;3.50;;;;;;;10.49;65.83;98826.06;5138571;28;20051;-65
2023/03/30 08:28:17;;;;;;;5.50;2.88;;;;;;;10.89;65.48;98824.59;5138038;28;20061;-67
2023/03/30 08:30:43;;;;;;;6.38;3.17;;;;;;;10.18;62.16;98827.19;5138108;28;20094;-62
2023/03/30 08:33:09;;;;;;;7.55;3.20;;;;;;;9.47;64.76;98824.97;5137924;28;20047;-63
2023/03/30 08:35:35;;;;;;;7.63;3.53;;;;;;;9.40;65.65;98811.16;5137982;27;20111;-67
2023/03/30 08:38:01;;;;;;;9.35;3.10;;;;;;;9.40;66.33;98822.91;5138002;28;20154;-70
2023/03/30 08:40:27;;;;;;;3.00;2.58;;;;;;;9.48;65.78;98814.81;5138073;28;20047;-64
2023/03/30 08:43:11;;;;;;;7.43;3.05;;;;;;;9.97;64.88;98816.75;5138767;28;20043;-64
2023/03/30 08:45:40;;;;;;;6.72;2.97;;;;;;;10.67;66.37;98821.59;5137847;28;20421;-74
2023/03/30 08:48:15;;;;;;;7.45;2.55;;;;;;;10.06;64.23;98819.97;5138806;28;20108;-68
2023/03/30 08:50:46;;;;;;;6.68;3.65;;;;;;;10.24;63.67;98822.97;5139559;28;20179;-67
2023/03/30 08:53:12;;;;;;;5.97;2.50;;;;;;;9.93;62.28;98829.56;5138854;28;20061;-63
2023/03/30 08:55:42;;;;;;;8.05;3.20;;;;;;;9.75;66.80;98815.63;5138147;28;20141;-67
2023/03/30 08:58:16;;;;;;;4.68;2.70;;;;;;;10.33;65.25;98821.59;5137330;28;20290;-69
2023/03/30 09:00:50;;;;;;;6.97;2.90;;;;;;;11.46;64.15;98825.97;5137728;28;20363;-68
2023/03/30 09:03:22;;;;;;;5.70;3.33;;;;;;;10.50;63.06;98820.22;5137068;27;20066;-66
2023/03/30 09:05:53;;;;;;;8.02;2.70;;;;;;;10.76;65.19;98813.88;5138541;27;20058;-70
2023/03/30 09:08:22;;;;;;;7.82;2.75;;;;;;;10.69;64.32;98813.78;5138205;28;20050;-71
2023/03/30 09:10:55;;;;;;;7.00;3.08;;;;;;;11.26;66.22;98808.09;5138457;28;20130;-65
2023/03/30 09:13:25;;;;;;;4.90;2.63;;;;;;;10.58;65.61;98802.69;5138330;28;20066;-63
2023/03/30 09:15:56;;;;;;;5.05;2.88;;;;;;;10.73;63.23;98803.66;5137773;28;20150;-67
2023/03/30 09:18:26;;;;;;;11.85;2.88;;;;;;;9.38;66.29;98797.84;5137861;28;20048;-68
2023/03/30 09:20:55;;;;;;;5.43;2.80;;;;;;;9.94;68.37;98795.56;5137822;28;20043;-68
2023/03/30 09:23:21;;;;;;;8.70;4.50;;;;;;;10.02;69.37;98791.75;5137897;28;20096;-71
2023/03/30 09:25:57;;;;;;;6.72;3.80;;;;;;;10.01;71.59;98790.97;5137867;28;20374;-68
2023/03/30 09:28:29;;;;;;;7.13;3.40;;;;;;;9.81;68.52;98795.00;5137824;28;20055;-66
2023/03/30 09:31:01;;;;;;;8.82;3.50;;;;;;;9.58;71.67;98784.88;5137375;28;20046;-68
2023/03/30 09:33:36;;;;;;;5.90;3.08;;;;;;;9.99;68.59;98782.31;5137798;28;20062;-68
2023/03/30 09:36:13;;;;;;;6.22;3.08;;;;;;;9.20;69.05;98791.28;5137460;27;20099;-65
2023/03/30 09:38:40;;;;;;;4.20;2.65;;;;;;;8.48;67.77;98787.22;5137375;28;20055;-64
2023/03/30 09:41:28;;;;;;;18.35;3.17;;;;;;;8.44;71.93;98782.84;5137296;28;20047;-66
2023/03/30 09:43:57;;;;;;;3.20;2.17;;;;;;;8.35;71.88;98782.22;5137203;28;20058;-64
2023/03/30 09:46:23;;;;;;;3.45;2.70;;;;;;;8.44;71.42;98771.91;5137682;28;20054;-69
2023/03/30 09:48:50;;;;;;;4.85;2.45;;;;;;;9.73;75.98;98752.22;5136932;28;20055;-69
2023/03/30 09:51:19;;;;;;;6.07;3.17;;;;;;;8.46;72.47;98756.75;5137739;28;20042;-64
2023/03/30 09:53:48;;;;;;;2.67;2.40;;;;;;;8.47;75.39;98749.34;5137193;28;20053;-66
2023/03/30 09:56:19;;;;;;;3.97;2.60;;;;;;;8.60;75.06;98741.78;5136853;28;20405;-69
2023/03/30 09:58:45;;;;;;;10.68;3.15;;;;;;;8.95;72.64;98739.66;5137639;28;20058;-69
2023/03/30 10:01:13;;;;;;;4.60;2.47;;;;;;;9.55;78.08;98736.34;5136915;28;20051;-67
2023/03/30 10:03:40;;;;;;;11.20;2.78;;;;;;;9.05;75.88;98723.81;5137210;28;20401;-69
2023/03/30 10:06:11;;;;;;;7.93;2.95;;;;;;;9.66;79.99;98728.28;5136821;27;20429;-65
2023/03/30 10:08:42;;;;;;;4.20;2.45;;;;;;;8.77;81.23;98729.59;5137483;28;20082;-69
2023/03/30 10:11:09;;;;;;;5.47;2.78;;;;;;;8.45;79.59;98716.91;5136852;28;20075;-69
2023/03/30 10:13:38;;;;;;;3.65;2.75;;;;;;;8.32;84.47;98715.44;5136801;27;20043;-68
2023/03/30 10:16:06;;;;;;;4.68;2.72;;;;;;;8.30;88.16;98706.03;5140233;28;20051;-65
2023/03/30 10:18:39;;;;;;;9.40;3.30;;;;;;;9.00;88.64;98700.31;5140321;28;20153;-64
2023/03/30 10:21:17;;;;;;;4.90;2.53;;;;;;;9.48;85.97;98697.16;5140677;28;20051;-61
2023/03/30 10:23:58;;;;;;;7.57;2.80;;;;;;;9.01;84.60;98701.88;5140590;28;20439;-62
2023/03/30 10:26:29;;;;;;;6.90;2.88;;;;;;;8.30;79.26;98706.03;5140720;28;20133;-63
2023/03/30 10:28:56;;;;;;;4.30;3.17;;;;;;;8.56;83.30;98700.69;5139758;28;20336;-64
2023/03/30 10:31:24;;;;;;;10.25;3.20;;;;;;;8.21;82.42;98700.81;5140399;28;20190;-67
2023/03/30 10:33:55;;;;;;;5.50;2.92;;;;;;;7.81;81.63;98703.88;5139889;28;20062;-64
2023/03/30 10:36:26;;;;;;;9.52;2.70;;;;;;;7.43;83.66;98703.47;5140257;27;20053;-64
2023/03/30 10:38:52;;;;;;;8.35;4.10;;;;;;;7.54;87.45;98688.13;5140052;28;20050;-64
2023/03/30 10:41:21;;;;;;;3.72;2.83;;;;;;;7.54;85.24;98690.84;5141949;28;20082;-63
2023/03/30 10:43:48;;;;;;;4.28;2.88;;;;;;;7.17;84.21;98695.06;5141070;28;20057;-66
2023/03/30 10:46:18;;;;;;;5.35;2.55;;;;;;;7.44;92.72;98683.22;5139793;28;20107;-68
2023/03/30 10:48:58;;;;;;;3.58;2.47;;;;;;;7.04;85.87;98672.56;5140034;28;20111;-64
2023/03/30 10:51:35;;;;;;;3.80;3.03;;;;;;;7.53;91.37;98669.38;5139900;28;20069;-68
2023/03/30 10:54:08;;;;;;;10.38;3.65;;;;;;;7.46;86.39;98680.94;5140008;28;20142;-67
2023/03/30 10:56:41;;;;;;;7.70;2.88;;;;;;;6.40;81.99;98674.47;5140048;28;20058;-66
2023/03/30 10:59:27;;;;;;;9.43;3.90;;;;;;;7.20;89.60;98653.47;5139728;28;20150;-65
2023/03/30 11:02:11;;;;;;;6.22;3.97;;;;;;;7.22;88.75;98653.88;5139620;28;20141;-67
2023/03/30 11:04:42;;;;;;;6.28;3.25;;;;;;;6.63;86.31;98655.59;5139184;27;20133;-66
2023/03/30 11:07:15;;;;;;;11.85;4.95;;;;;;;7.03;82.39;98652.69;5139596;28;20119;-65
2023/03/30 11:09:48;;;;;;;9.88;3.58;;;;;;;7.29;89.49;98643.91;5139203;28;20055;-64
2023/03/30 11:12:19;;;;;;;4.43;3.25;;;;;;;7.29;85.90;98634.94;5139952;28;20074;-65
2023/03/30 11:14:49;;;;;;;6.88;3.92;;;;;;;7.26;90.15;98620.13;5139525;28;20428;-65
2023/03/30 11:17:21;;;;;;;9.95;3.80;;;;;;;7.05;97.54;98622.34;5139577;28;20196;-63
2023/03/30 11:19:53;;;;;;;8.43;4.25;;;;;;;7.32;93.10;98628.78;5139227;28;20503;-62
2023/03/30 11:22:29;;;;;;;10.40;3.90;;;;;;;6.80;90.42;98619.03;5139207;28;20119;-69
2023/03/30 11:24:56;;;;;;;14.52;4.60;;;;;;;7.36;93.95;98609.78;5139157;27;20133;-65
2023/03/30 11:27:29;;;;;;;5.82;3.40;;;;;;;6.57;86.87;98616.16;5138138;28;20051;-67
2023/03/30 11:30:01;;;;;;;5.70;3.63;;;;;;;6.99;90.02;98610.91;5139334;28;20057;-67
2023/03/30 11:32:32;;;;;;;7.55;3.42;;;;;;;6.82;94.21;98601.19;5138836;28;20089;-65
2023/03/30 11:35:09;;;;;;;17.67;7.38;;;;;;;7.03;90.72;98602.81;5138679;27;20420;-66
2023/03/30 11:37:42;;;;;;;9.27;4.25;;;;;;;6.43;94.45;98596.72;5138932;28;20062;-67